createdAt,value
2018-03-02T00:00:55.531Z,68.90
2018-03-02T00:03:23.433Z,70.80
2018-03-02T00:05:51.385Z,70.60
2018-03-02T00:08:19.280Z,68.30
2018-03-02T00:10:47.226Z,68.30
2018-03-02T00:13:20.510Z,69.20
2018-03-02T00:15:48.460Z,69.20
2018-03-02T00:18:16.468Z,70.40
2018-03-02T00:20:45.243Z,70.10
2018-03-02T00:23:13.949Z,70.60
2018-03-02T00:25:41.905Z,69.80
2018-03-02T00:28:09.806Z,71.50
2018-03-02T00:30:37.749Z,71.30
2018-03-02T00:33:06.417Z,73.10
2018-03-02T00:35:34.364Z,73.30
2018-03-02T00:38:02.273Z,74.00
2018-03-02T00:40:30.264Z,72.20
2018-03-02T00:42:58.231Z,73.50
2018-03-02T00:45:26.165Z,74.30
2018-03-02T00:47:54.087Z,74.00
2018-03-02T00:50:22.036Z,75.00
2018-03-02T00:52:53.882Z,74.00
2018-03-02T00:55:22.586Z,73.60
2018-03-02T00:57:50.477Z,73.60
2018-03-02T01:00:18.429Z,74.20
2018-03-02T01:02:46.470Z,72.50
2018-03-02T01:05:14.432Z,74.00
2018-03-02T01:07:42.435Z,75.40
2018-03-02T01:10:10.424Z,74.60
2018-03-02T01:12:38.360Z,75.10
2018-03-02T01:15:07.060Z,76.90
2018-03-02T01:17:34.937Z,76.70
2018-03-02T01:20:02.834Z,76.40
2018-03-02T01:22:30.768Z,77.00
2018-03-02T01:24:58.674Z,76.60
2018-03-02T01:27:26.618Z,77.00
2018-03-02T01:29:54.514Z,77.80
2018-03-02T01:32:22.509Z,76.10
2018-03-02T01:34:50.396Z,76.60
2018-03-02T01:37:18.380Z,76.30
2018-03-02T01:39:47.028Z,77.80
2018-03-02T01:42:14.963Z,77.80
2018-03-02T01:44:43.611Z,75.80
2018-03-02T01:47:12.324Z,76.30
2018-03-02T01:49:40.205Z,76.20
2018-03-02T01:52:08.207Z,77.40
2018-03-02T01:54:36.292Z,76.20
2018-03-02T01:57:04.244Z,78.00
2018-03-02T01:59:32.128Z,77.30
2018-03-02T02:02:00.058Z,76.70
2018-03-02T02:04:27.946Z,76.30
2018-03-02T02:06:55.905Z,76.70
2018-03-02T02:09:23.858Z,76.10
2018-03-02T02:11:51.803Z,77.80
2018-03-02T02:14:19.699Z,76.50
2018-03-02T02:16:47.644Z,77.00
2018-03-02T02:19:15.627Z,78.10
2018-03-02T02:21:43.568Z,77.00
2018-03-02T02:24:16.244Z,76.60
2018-03-02T02:26:44.177Z,77.00
2018-03-02T02:29:12.058Z,77.00
2018-03-02T02:31:40.004Z,76.20
2018-03-02T02:34:07.944Z,76.50
2018-03-02T02:36:35.881Z,76.40
2018-03-02T02:39:03.894Z,78.10
2018-03-02T02:41:31.852Z,77.40
2018-03-02T02:43:59.754Z,76.00
2018-03-02T02:46:27.713Z,78.60
2018-03-02T02:48:55.604Z,77.30
2018-03-02T02:51:23.545Z,77.00
2018-03-02T02:53:51.566Z,76.40
2018-03-02T02:56:19.502Z,76.30
2018-03-02T02:58:47.525Z,78.30
2018-03-02T03:01:18.824Z,76.60
2018-03-02T03:03:50.802Z,77.60
2018-03-02T03:06:22.232Z,77.60
2018-03-02T03:08:53.198Z,77.40
2018-03-02T03:11:24.507Z,78.70
2018-03-02T03:13:56.076Z,76.40
2018-03-02T03:16:27.566Z,77.00
2018-03-02T03:18:59.947Z,76.90
2018-03-02T03:21:30.948Z,76.10
2018-03-02T03:24:02.280Z,77.80
2018-03-02T03:26:33.709Z,76.30
2018-03-02T03:29:05.705Z,76.80
2018-03-02T03:31:37.223Z,79.00
2018-03-02T03:34:08.006Z,80.30
2018-03-02T03:36:39.494Z,79.40
2018-03-02T03:39:10.434Z,79.10
2018-03-02T03:41:43.106Z,80.30
2018-03-02T03:44:14.087Z,80.30
2018-03-02T03:46:45.324Z,80.60
2018-03-02T03:49:16.474Z,79.80
2018-03-02T03:51:47.474Z,79.00
2018-03-02T03:54:19.309Z,79.40
2018-03-02T03:56:47.435Z,78.60
2018-03-02T03:59:16.089Z,78.50
2018-03-02T04:01:44.022Z,78.40
2018-03-02T04:04:11.934Z,78.90
2018-03-02T04:06:39.930Z,77.20
2018-03-02T04:09:07.832Z,76.70
2018-03-02T04:11:35.768Z,78.70
2018-03-02T04:14:10.961Z,78.80
2018-03-02T04:16:38.901Z,82.70
2018-03-02T04:19:06.817Z,80.00
2018-03-02T04:21:34.748Z,80.00
2018-03-02T04:24:02.658Z,81.00
2018-03-02T04:26:30.625Z,80.30
2018-03-02T04:28:58.523Z,80.40
2018-03-02T04:31:27.257Z,80.90
2018-03-02T04:33:55.153Z,80.90
2018-03-02T04:36:23.088Z,80.70
2018-03-02T04:38:50.989Z,80.90
2018-03-02T04:41:18.941Z,82.50
2018-03-02T04:43:46.961Z,82.10
2018-03-02T04:46:15.665Z,84.50
2018-03-02T04:48:43.558Z,84.40
2018-03-02T04:51:11.493Z,85.10
2018-03-02T04:53:40.166Z,84.60
2018-03-02T04:56:08.123Z,84.30
2018-03-02T04:58:36.075Z,85.30
2018-03-02T05:01:04.035Z,85.20
2018-03-02T05:03:31.945Z,85.40
2018-03-02T05:05:59.885Z,85.60
2018-03-02T05:08:27.778Z,85.70
2018-03-02T05:10:55.671Z,86.00
2018-03-02T05:13:24.484Z,86.30
2018-03-02T05:15:52.464Z,86.30
2018-03-02T05:18:20.715Z,86.20
2018-03-02T05:20:48.623Z,86.60
2018-03-02T05:23:16.570Z,85.60
2018-03-02T05:25:44.465Z,85.50
2018-03-02T05:28:12.416Z,86.20
2018-03-02T05:30:40.318Z,85.60
2018-03-02T05:33:08.269Z,86.30
2018-03-02T05:35:36.164Z,85.70
2018-03-02T05:38:04.137Z,85.60
2018-03-02T05:40:35.367Z,85.60
2018-03-02T05:43:07.391Z,86.00
2018-03-02T05:45:35.471Z,87.10
2018-03-02T05:48:03.422Z,86.60
2018-03-02T05:50:31.369Z,86.00
2018-03-02T05:53:00.094Z,85.70
2018-03-02T05:55:28.042Z,85.60
2018-03-02T05:58:01.618Z,85.60
2018-03-02T06:00:30.715Z,84.80
2018-03-02T06:02:58.677Z,84.70
2018-03-02T06:05:26.566Z,85.60
2018-03-02T06:07:55.285Z,86.20
2018-03-02T06:10:23.190Z,86.10
2018-03-02T06:12:51.154Z,86.00
2018-03-02T06:15:19.057Z,85.90
2018-03-02T06:17:47.028Z,86.10
2018-03-02T06:20:15.713Z,86.70
2018-03-02T06:22:43.770Z,86.70
2018-03-02T06:25:11.706Z,86.00
2018-03-02T06:27:39.656Z,85.00
2018-03-02T06:30:07.629Z,85.20
2018-03-02T06:32:35.592Z,85.80
2018-03-02T06:35:03.508Z,85.20
2018-03-02T06:37:31.464Z,84.60
2018-03-02T06:39:59.396Z,84.20
2018-03-02T06:42:27.356Z,85.50
2018-03-02T06:44:56.028Z,84.20
2018-03-02T06:47:23.976Z,84.00
2018-03-02T06:49:51.864Z,85.00
2018-03-02T06:52:19.988Z,83.50
2018-03-02T06:54:47.879Z,84.40
2018-03-02T06:57:15.829Z,83.30
2018-03-02T06:59:43.778Z,82.10
2018-03-02T07:02:11.725Z,81.30
2018-03-02T07:04:39.628Z,81.40
2018-03-02T07:07:07.568Z,83.00
2018-03-02T07:09:35.448Z,82.10
2018-03-02T07:12:03.402Z,80.60
2018-03-02T07:14:31.356Z,80.30
2018-03-02T07:16:59.312Z,79.10
2018-03-02T07:19:27.207Z,78.70
2018-03-02T07:21:55.932Z,79.60
2018-03-02T07:24:23.833Z,79.50
2018-03-02T07:26:51.769Z,76.20
2018-03-02T07:29:19.667Z,77.90
2018-03-02T07:31:47.615Z,76.50
2018-03-02T07:34:15.514Z,75.90
2018-03-02T07:36:43.473Z,75.60
2018-03-02T07:39:11.356Z,73.30
2018-03-02T07:41:39.287Z,74.10
2018-03-02T07:44:07.375Z,75.30
2018-03-02T07:46:35.278Z,73.50
2018-03-02T07:49:03.209Z,74.60
2018-03-02T07:51:31.100Z,74.50
2018-03-02T07:53:59.071Z,71.80
2018-03-02T07:56:26.960Z,73.30
2018-03-02T07:58:54.898Z,73.70
2018-03-02T08:01:22.791Z,68.10
2018-03-02T08:03:50.740Z,68.00
2018-03-02T08:06:18.692Z,72.30
2018-03-02T08:08:46.619Z,70.00
2018-03-02T08:11:15.281Z,69.50
2018-03-02T08:13:43.310Z,69.60
2018-03-02T08:16:11.219Z,70.40
2018-03-02T08:18:39.204Z,71.50
2018-03-02T08:21:07.144Z,69.10
2018-03-02T08:23:35.093Z,70.30
2018-03-02T08:26:03.059Z,67.80
2018-03-02T08:28:31.078Z,67.00
2018-03-02T08:30:58.996Z,66.20
2018-03-02T08:33:26.950Z,68.70
2018-03-02T08:35:55.176Z,71.20
2018-03-02T08:38:23.120Z,67.60
2018-03-02T08:40:51.020Z,68.10
2018-03-02T08:43:26.023Z,68.60
2018-03-02T08:45:53.947Z,69.80
2018-03-02T08:48:21.857Z,67.80
2018-03-02T08:50:49.815Z,67.60
2018-03-02T08:53:17.732Z,69.80
2018-03-02T08:55:45.674Z,64.70
2018-03-02T08:58:13.591Z,62.80
2018-03-02T09:00:41.552Z,63.60
2018-03-02T09:03:09.447Z,62.70
2018-03-02T09:05:37.398Z,64.10
2018-03-02T09:08:05.295Z,61.10
2018-03-02T09:10:33.259Z,62.20
2018-03-02T09:13:05.948Z,57.70
2018-03-02T09:15:33.917Z,57.80
2018-03-02T09:18:01.834Z,60.50
2018-03-02T09:20:29.865Z,58.20
2018-03-02T09:22:57.935Z,56.40
2018-03-02T09:25:26.071Z,54.40
2018-03-02T09:27:54.074Z,56.70
2018-03-02T09:30:22.008Z,57.40
2018-03-02T09:32:51.635Z,53.90
2018-03-02T09:35:19.899Z,53.10
2018-03-02T09:37:47.780Z,54.20
2018-03-02T09:40:16.234Z,54.20
2018-03-02T09:42:45.154Z,53.00
2018-03-02T09:45:13.182Z,53.90
2018-03-02T09:47:41.069Z,54.70
2018-03-02T09:50:08.982Z,54.00
2018-03-02T09:52:36.913Z,54.30
2018-03-02T09:55:04.796Z,53.80
2018-03-02T09:57:32.730Z,51.50
2018-03-02T10:00:00.709Z,51.40
2018-03-02T10:02:30.388Z,50.60
2018-03-02T10:04:58.412Z,51.30
2018-03-02T10:07:26.351Z,51.70
2018-03-02T10:09:54.251Z,50.50
2018-03-02T10:12:23.183Z,48.60
2018-03-02T10:14:53.964Z,49.00
2018-03-02T10:17:22.073Z,50.00
2018-03-02T10:19:49.964Z,51.90
2018-03-02T10:22:17.897Z,50.00
2018-03-02T10:24:45.780Z,48.60
2018-03-02T10:27:13.825Z,46.40
2018-03-02T10:29:41.741Z,47.30
2018-03-02T10:32:09.821Z,49.30
2018-03-02T10:34:37.707Z,46.90
2018-03-02T10:37:05.615Z,47.50
2018-03-02T10:39:33.550Z,47.40
2018-03-02T10:42:01.447Z,49.20
2018-03-02T10:44:29.387Z,48.70
2018-03-02T10:46:57.273Z,48.40
2018-03-02T10:49:25.230Z,47.70
2018-03-02T10:51:53.121Z,46.10
2018-03-02T10:54:21.253Z,46.80
2018-03-02T10:56:49.143Z,47.20
2018-03-02T10:59:17.075Z,44.40
2018-03-02T11:01:50.651Z,44.40
2018-03-02T11:04:18.627Z,44.40
2018-03-02T11:06:46.513Z,44.50
2018-03-02T11:09:14.493Z,45.90
2018-03-02T11:11:42.394Z,45.00
2018-03-02T11:14:10.346Z,43.50
2018-03-02T11:16:38.275Z,43.10
2018-03-02T11:19:06.251Z,42.70
2018-03-02T11:21:34.140Z,42.60
2018-03-02T11:24:06.126Z,43.00
2018-03-02T11:26:34.022Z,43.60
2018-03-02T11:29:02.501Z,43.10
2018-03-02T11:31:30.549Z,45.00
2018-03-02T11:33:58.494Z,43.60
2018-03-02T11:36:26.430Z,42.60
2018-03-02T11:38:55.128Z,44.10
2018-03-02T11:41:23.112Z,44.10
2018-03-02T11:43:51.097Z,42.70
2018-03-02T11:46:19.007Z,42.70
2018-03-02T11:48:46.954Z,43.10
2018-03-02T11:51:15.717Z,42.80
2018-03-02T11:53:43.925Z,43.70
2018-03-02T11:56:11.810Z,44.80
2018-03-02T11:58:39.747Z,46.60
2018-03-02T12:01:07.714Z,46.40
2018-03-02T12:03:35.656Z,45.90
2018-03-02T12:06:03.540Z,45.80
2018-03-02T12:08:31.532Z,44.80
2018-03-02T12:10:59.429Z,45.20
2018-03-02T12:13:27.393Z,45.80
2018-03-02T12:15:55.313Z,46.30
2018-03-02T12:18:23.218Z,47.70
2018-03-02T12:20:51.190Z,46.60
2018-03-02T12:23:19.180Z,47.30
2018-03-02T12:25:47.135Z,47.70
2018-03-02T12:28:15.146Z,50.30
2018-03-02T12:30:43.107Z,47.20
2018-03-02T12:33:11.766Z,50.50
2018-03-02T12:35:39.729Z,50.50
2018-03-02T12:38:07.663Z,46.50
2018-03-02T12:40:35.630Z,48.90
2018-03-02T12:43:04.497Z,47.20
2018-03-02T12:45:32.749Z,47.20
2018-03-02T12:48:00.642Z,46.70
2018-03-02T12:50:28.615Z,45.70
2018-03-02T12:53:07.239Z,45.30
2018-03-02T12:55:38.671Z,45.20
2018-03-02T12:58:06.602Z,44.50
2018-03-02T13:00:34.612Z,45.70
2018-03-02T13:03:02.576Z,45.10
2018-03-02T13:05:30.526Z,44.80
2018-03-02T13:07:58.430Z,45.00
2018-03-02T13:10:26.416Z,44.60
2018-03-02T13:13:00.550Z,44.50
2018-03-02T13:15:29.267Z,44.30
2018-03-02T13:17:57.146Z,44.30
2018-03-02T13:20:25.125Z,44.50
2018-03-02T13:22:53.048Z,44.40
2018-03-02T13:25:21.008Z,44.60
2018-03-02T13:28:00.550Z,42.60
2018-03-02T13:30:28.552Z,42.80
2018-03-02T13:33:08.166Z,42.80
2018-03-02T13:35:36.962Z,44.40
2018-03-02T13:38:04.934Z,44.30
2018-03-02T13:40:45.514Z,43.70
2018-03-02T13:43:13.411Z,43.60
2018-03-02T13:45:41.357Z,43.50
2018-03-02T13:51:12.354Z,44.30
2018-03-02T13:53:41.052Z,44.00
2018-03-02T13:59:05.955Z,45.00
2018-03-02T14:01:33.940Z,45.40
2018-03-02T14:04:13.535Z,44.20
2018-03-02T14:06:41.533Z,43.40
2018-03-02T14:09:09.448Z,44.00
2018-03-02T14:11:37.497Z,44.80
2018-03-02T14:14:05.416Z,45.30
2018-03-02T14:16:33.400Z,42.70
2018-03-02T14:19:01.340Z,44.10
2018-03-02T14:21:29.306Z,45.10
2018-03-02T14:24:05.840Z,44.40
2018-03-02T14:26:34.577Z,43.50
2018-03-02T14:29:02.576Z,43.40
2018-03-02T14:31:30.588Z,44.30
2018-03-02T14:33:58.491Z,45.40
2018-03-02T14:36:26.465Z,45.50
2018-03-02T14:38:54.364Z,45.20
2018-03-02T14:41:22.334Z,45.50
2018-03-02T14:43:50.303Z,45.50
2018-03-02T14:46:18.278Z,45.70
2018-03-02T14:48:46.257Z,45.90
2018-03-02T14:51:14.996Z,47.70
2018-03-02T14:53:43.058Z,47.70
2018-03-02T14:56:11.029Z,47.20
2018-03-02T14:58:38.942Z,48.10
2018-03-02T15:01:06.989Z,47.50
2018-03-02T15:03:34.898Z,50.00
2018-03-02T15:06:02.885Z,50.80
2018-03-02T15:08:30.869Z,50.30
2018-03-02T15:10:59.167Z,50.60
2018-03-02T15:13:27.082Z,50.80
2018-03-02T15:15:55.074Z,49.70
2018-03-02T15:18:23.022Z,50.10
2018-03-02T15:20:50.987Z,50.00
2018-03-02T15:23:18.972Z,49.90
2018-03-02T15:25:47.753Z,51.80
2018-03-02T15:28:15.697Z,51.70
2018-03-02T15:30:43.608Z,52.50
2018-03-02T15:33:11.565Z,51.80
2018-03-02T15:35:40.254Z,51.00
2018-03-02T15:38:09.027Z,53.20
2018-03-02T15:40:36.938Z,53.20
2018-03-02T15:43:04.919Z,52.00
2018-03-02T15:45:32.851Z,52.50
2018-03-02T15:48:01.622Z,55.20
2018-03-02T15:50:29.545Z,55.20
2018-03-02T15:53:01.134Z,55.30
2018-03-02T15:55:29.062Z,56.80
2018-03-02T15:57:57.047Z,58.70
2018-03-02T16:00:24.975Z,56.40
2018-03-02T16:02:53.738Z,56.00
2018-03-02T16:05:21.656Z,56.00
2018-03-02T16:07:49.633Z,57.70
2018-03-02T16:10:17.560Z,58.20
2018-03-02T16:12:45.532Z,58.10
2018-03-02T16:15:13.503Z,60.20
2018-03-02T16:17:41.525Z,58.20
2018-03-02T16:20:09.466Z,59.40
2018-03-02T16:22:39.554Z,59.70
2018-03-02T16:25:08.276Z,58.50
2018-03-02T16:27:36.280Z,58.50
2018-03-02T16:30:04.260Z,57.20
2018-03-02T16:32:32.240Z,58.30
2018-03-02T16:35:00.199Z,63.20
2018-03-02T16:37:28.171Z,59.70
2018-03-02T16:39:56.088Z,61.00
2018-03-02T16:42:24.006Z,62.50
2018-03-02T16:44:52.027Z,62.60
2018-03-02T16:47:19.934Z,61.30
2018-03-02T16:49:47.901Z,60.10
2018-03-02T16:52:15.858Z,60.30
2018-03-02T16:54:43.852Z,61.20
2018-03-02T16:57:11.758Z,64.40
2018-03-02T16:59:39.737Z,63.10
2018-03-02T17:02:07.641Z,63.70
2018-03-02T17:04:35.675Z,63.30
2018-03-02T17:07:03.624Z,64.40
2018-03-02T17:09:31.593Z,63.20
2018-03-02T17:11:59.518Z,62.40
2018-03-02T17:14:28.462Z,64.60
2018-03-02T17:16:56.461Z,63.40
2018-03-02T17:19:25.199Z,63.70
2018-03-02T17:21:53.123Z,63.60
2018-03-02T17:24:21.116Z,64.40
2018-03-02T17:26:49.141Z,66.60
2018-03-02T17:29:17.032Z,65.00
2018-03-02T17:31:45.792Z,64.90
2018-03-02T17:34:13.758Z,64.90
2018-03-02T17:36:41.694Z,65.30
2018-03-02T17:39:09.661Z,65.90
2018-03-02T17:41:37.586Z,67.50
2018-03-02T17:44:05.629Z,67.40
2018-03-02T17:46:33.548Z,64.90
2018-03-02T17:49:01.550Z,67.30
2018-03-02T17:51:29.530Z,67.60
2018-03-02T17:53:57.463Z,67.10
2018-03-02T17:56:25.494Z,69.20
2018-03-02T17:58:53.401Z,68.30
2018-03-02T18:01:21.387Z,68.30
2018-03-02T18:03:49.421Z,69.60
2018-03-02T18:06:17.442Z,70.80
2018-03-02T18:08:45.381Z,71.50
2018-03-02T18:11:13.420Z,72.60
2018-03-02T18:13:41.541Z,76.70
2018-03-02T18:16:09.506Z,77.50
2018-03-02T18:18:38.001Z,80.50
2018-03-02T18:21:06.036Z,83.20
2018-03-02T18:23:34.768Z,88.40
2018-03-02T18:26:02.706Z,88.40
2018-03-02T18:28:30.616Z,89.40
2018-03-02T18:30:58.578Z,90.20
2018-03-02T18:33:26.701Z,91.30
2018-03-02T18:35:55.472Z,93.60
2018-03-02T18:38:23.452Z,93.60
2018-03-02T18:40:51.432Z,95.30
2018-03-02T18:43:20.224Z,97.70
2018-03-02T18:45:53.498Z,98.70
2018-03-02T18:48:21.586Z,98.70
2018-03-02T18:50:49.630Z,99.50
2018-03-02T18:53:17.572Z,99.90
2018-03-02T18:55:45.556Z,99.90
2018-03-02T18:58:13.498Z,99.90
2018-03-02T19:00:41.563Z,99.90
2018-03-02T19:03:09.585Z,99.90
2018-03-02T19:05:37.503Z,99.90
2018-03-02T19:08:05.553Z,99.90
2018-03-02T19:10:34.223Z,99.90
2018-03-02T19:13:02.298Z,99.90
2018-03-02T19:15:30.257Z,99.90
2018-03-02T19:17:58.742Z,99.90
2018-03-02T19:20:26.662Z,99.90
2018-03-02T19:22:54.670Z,99.90
2018-03-02T19:25:22.592Z,99.90
2018-03-02T19:27:51.309Z,99.90
2018-03-02T19:30:19.264Z,99.90
2018-03-02T19:32:47.294Z,99.90
2018-03-02T19:35:15.215Z,99.90
2018-03-02T19:37:43.232Z,99.90
2018-03-02T19:40:11.156Z,99.90
2018-03-02T19:42:42.508Z,99.90
2018-03-02T19:45:10.397Z,99.90
2018-03-02T19:47:40.298Z,99.90
2018-03-02T19:50:08.207Z,99.90
2018-03-02T19:52:36.162Z,99.90
2018-03-02T19:55:04.085Z,99.90
2018-03-02T19:57:32.039Z,99.90
2018-03-02T20:00:00.050Z,99.90
2018-03-02T20:02:28.537Z,99.90
2018-03-02T20:04:56.426Z,99.90
2018-03-02T20:07:24.325Z,99.90
2018-03-02T20:09:53.061Z,99.90
2018-03-02T20:12:28.178Z,99.90
2018-03-02T20:14:56.129Z,99.90
2018-03-02T20:17:24.093Z,99.90
2018-03-02T20:19:52.812Z,99.90
2018-03-02T20:22:20.720Z,99.90
2018-03-02T20:24:48.732Z,99.90
2018-03-02T20:27:16.738Z,99.90
2018-03-02T20:29:44.700Z,99.90
2018-03-02T20:32:12.728Z,99.90
2018-03-02T20:34:41.510Z,99.90
2018-03-02T20:37:10.360Z,99.90
2018-03-02T20:39:38.394Z,99.90
2018-03-02T20:42:06.355Z,99.90
2018-03-02T20:44:34.404Z,99.90
2018-03-02T20:47:02.474Z,99.90
2018-03-02T20:49:30.487Z,99.90
2018-03-02T20:51:58.379Z,99.90
2018-03-02T20:54:26.296Z,99.90
2018-03-02T20:56:54.215Z,99.90
2018-03-02T20:59:22.209Z,99.90
2018-03-02T21:01:50.114Z,99.90
2018-03-02T21:04:18.146Z,99.90
2018-03-02T21:06:46.175Z,99.90
2018-03-02T21:09:14.103Z,99.90
2018-03-02T21:11:42.010Z,99.90
2018-03-02T21:14:12.135Z,99.90
2018-03-02T21:16:40.146Z,99.90
2018-03-02T21:19:08.090Z,99.90
2018-03-02T21:21:38.373Z,99.90
2018-03-02T21:24:07.319Z,99.90
2018-03-02T21:26:35.383Z,99.90
2018-03-02T21:29:04.729Z,99.90
2018-03-02T21:31:32.725Z,99.90
2018-03-02T21:34:00.634Z,99.90
2018-03-02T21:36:28.644Z,99.90
2018-03-02T21:38:56.558Z,99.90
2018-03-02T21:41:24.516Z,99.90
2018-03-02T21:43:52.462Z,99.90
2018-03-02T21:46:21.284Z,99.90
2018-03-02T21:48:49.191Z,99.90
2018-03-02T21:51:17.167Z,99.90
2018-03-02T21:53:48.502Z,99.90
2018-03-02T21:56:16.478Z,99.90
2018-03-02T21:58:44.443Z,99.90
2018-03-02T22:01:12.426Z,99.90
2018-03-02T22:03:40.356Z,99.90
2018-03-02T22:06:08.340Z,99.90
2018-03-02T22:08:36.260Z,99.90
2018-03-02T22:11:05.029Z,99.90
2018-03-02T22:13:32.937Z,99.90
2018-03-02T22:16:00.895Z,99.90
2018-03-02T22:18:28.816Z,99.90
2018-03-02T22:20:56.804Z,99.90
2018-03-02T22:23:27.084Z,99.90
2018-03-02T22:25:55.057Z,99.90
2018-03-02T22:28:22.969Z,99.90
2018-03-02T22:30:50.943Z,99.90
2018-03-02T22:33:18.980Z,99.90
2018-03-02T22:35:46.887Z,99.90
2018-03-02T22:38:18.399Z,99.90
2018-03-02T22:40:46.877Z,99.90
2018-03-02T22:43:18.820Z,99.90
2018-03-02T22:45:50.268Z,99.90
2018-03-02T22:48:19.396Z,99.90
2018-03-02T22:50:50.511Z,99.90
2018-03-02T22:53:19.555Z,99.90
2018-03-02T22:55:51.629Z,99.90
2018-03-02T22:58:23.061Z,99.90
2018-03-02T23:00:50.978Z,99.90
2018-03-02T23:03:19.789Z,99.90
2018-03-02T23:05:48.427Z,99.90
2018-03-02T23:08:22.454Z,99.90
2018-03-02T23:10:50.444Z,99.90
2018-03-02T23:13:20.957Z,99.90
2018-03-02T23:15:50.898Z,99.90
2018-03-02T23:18:19.320Z,99.90
2018-03-02T23:20:47.607Z,99.90
2018-03-02T23:23:15.582Z,99.90
2018-03-02T23:25:43.508Z,99.90
2018-03-02T23:28:11.465Z,99.90
2018-03-02T23:30:39.553Z,99.90
2018-03-02T23:33:07.530Z,99.90
2018-03-02T23:35:35.438Z,99.90
2018-03-02T23:38:04.540Z,99.90
2018-03-02T23:40:32.532Z,99.90
2018-03-02T23:43:01.401Z,99.90
2018-03-02T23:45:29.324Z,99.90
2018-03-02T23:47:57.713Z,99.90
2018-03-02T23:50:25.727Z,99.90
2018-03-02T23:52:53.678Z,99.90
2018-03-02T23:55:21.583Z,99.90
2018-03-02T23:57:50.329Z,99.90
